Moosonee Airport
CYMO : now visible

Aeroporto :











RITROVATECI SU...

 
LOGIN :

Iscrizione | Disclaimer

   EN    FR    IT 

 









Sommario :    VFR   VFR Marginale   IFR   IFR Intensivo   IFR Molto Intensivo
Visibilità : 
Base nubi : 
>= 8 km
>= 3000ft
5 / 8 km
1000 / 3000 ft
1500m / 5 km
500 / 1000 ft
800 / 1500m
200 / 500 ft
< 800m
< 200 ft
Simboli :   Temporali  Nebbia  Neve Forte  Precipitazioni Forti  Vento > 20 kt






- Altitudine del aeroporto : 30 ft
- Codice IATA : YMO


CYMO - Moosonee

ULTIMO METAR :
  • 290227Z AUTO 23006KT 9SM -SN BKN021 OVC037 M02/M04 A2972 RMK SLP070

METARs OBSOLETI :
  • 290219Z AUTO 23007KT 9SM BKN021 OVC036 M02/M04 A2972 RMK SLP068
  • 290200Z AUTO 23006KT 9SM BKN038 OVC085 M02/M04 A2972 RMK SLP066
  • 290111Z AUTO 20007KT 9SM BKN030 OVC075 M02/M04 A2972 RMK SLP065
  • 290051Z AUTO 22004KT 9SM -SN FEW030 OVC075 M02/M04 A2972 RMK SLP068
  • 290012Z AUTO 23007KT 9SM OVC075 M02/M04 A2972 RMK SLP067
  • 290001Z AUTO 23006KT 9SM -SN OVC075 M02/M04 A2972 RMK SLP067

TAF TAF CYMO
Valido dal 29 a 00 ore il 29 a 12 ore UTC


282338Z 2900/2912 23005KT P6SM BKN025 OVC070
TEMPO 2900/2908 5SM -SHSN OVC020
FM290800 28008KT P6SM BKN015
TEMPO 2908/2912 SCT015 RMK FCST BASED ON AUTO OBS. NXT FCST BY 290600Z
FIR CZYZ / America del Nord



MetMap, La meteo Aeronautica in un colpo d'occhio ! - Copyright ORBIFLY Dicembre 2007 - Disclaimer

ORBIFLY MET'MAP TEAM :

Programmazione e sviluppo : Alexandra Zaïnal
Concezione : Baudouin d'Aumeries
Aiuto per la programmazione : Marc-Olivier Méhu
Supporto tecnico e logistico : Manuel Goepfert
Aiuto per la traduzione : Arnaldo La Scala

Contatto : metmap@orbifly.com




FONTI E CREDITI :

   NOAA       Earth
Advisory